sensor_id;sensor_type;location;lat;lon;timestamp;pressure;altitude;pressure_sealevel;temperature;humidity
22311;BME280;11323;49.610;11.016;2023-08-08T00:00:38;98199.22;;;19.93;57.31
22311;BME280;11323;49.610;11.016;2023-08-08T00:05:39;98198.00;;;19.88;57.28
22311;BME280;11323;49.610;11.016;2023-08-08T00:10:40;98189.44;;;19.86;57.41
22311;BME280;11323;49.610;11.016;2023-08-08T00:15:40;98182.50;;;19.85;57.37
22311;BME280;11323;49.610;11.016;2023-08-08T00:20:41;98173.16;;;19.83;57.28
22311;BME280;11323;49.610;11.016;2023-08-08T00:25:41;98174.56;;;19.79;57.26
22311;BME280;11323;49.610;11.016;2023-08-08T00:30:42;98180.06;;;19.77;57.32
22311;BME280;11323;49.610;11.016;2023-08-08T00:35:42;98171.50;;;19.75;57.30
22311;BME280;11323;49.610;11.016;2023-08-08T00:40:43;98174.38;;;19.73;57.29
22311;BME280;11323;49.610;11.016;2023-08-08T00:45:44;98168.25;;;19.73;57.25
22311;BME280;11323;49.610;11.016;2023-08-08T00:50:45;98169.47;;;19.70;57.37
22311;BME280;11323;49.610;11.016;2023-08-08T00:55:46;98163.38;;;19.70;56.94
22311;BME280;11323;49.610;11.016;2023-08-08T01:00:46;98162.56;;;19.63;57.34
22311;BME280;11323;49.610;11.016;2023-08-08T01:06:18;98165.81;;;19.65;57.39
22311;BME280;11323;49.610;11.016;2023-08-08T01:11:21;98155.22;;;19.51;57.19
22311;BME280;11323;49.610;11.016;2023-08-08T01:16:22;98157.66;;;19.59;57.27
22311;BME280;11323;49.610;11.016;2023-08-08T01:21:26;98161.53;;;19.57;57.10
22311;BME280;11323;49.610;11.016;2023-08-08T01:26:28;98165.41;;;19.54;56.99
22311;BME280;11323;49.610;11.016;2023-08-08T01:31:29;98158.47;;;19.53;57.33
22311;BME280;11323;49.610;11.016;2023-08-08T01:36:48;98174.34;;;19.53;57.55
22311;BME280;11323;49.610;11.016;2023-08-08T01:41:50;98180.25;;;19.55;57.60
22311;BME280;11323;49.610;11.016;2023-08-08T01:46:52;98163.75;;;19.47;57.55
22311;BME280;11323;49.610;11.016;2023-08-08T01:51:53;98167.81;;;19.49;57.63
22311;BME280;11323;49.610;11.016;2023-08-08T01:56:53;98147.50;;;19.43;57.39
22311;BME280;11323;49.610;11.016;2023-08-08T02:01:54;98155.59;;;19.48;57.48
22311;BME280;11323;49.610;11.016;2023-08-08T02:06:54;98148.72;;;19.47;57.46
22311;BME280;11323;49.610;11.016;2023-08-08T02:11:54;98135.28;;;19.42;57.57
22311;BME280;11323;49.610;11.016;2023-08-08T02:16:55;98143.44;;;19.40;57.23
22311;BME280;11323;49.610;11.016;2023-08-08T02:21:55;98152.38;;;19.46;57.58
22311;BME280;11323;49.610;11.016;2023-08-08T02:26:56;98155.03;;;19.46;57.50
22311;BME280;11323;49.610;11.016;2023-08-08T02:31:56;98151.53;;;19.39;57.38
22311;BME280;11323;49.610;11.016;2023-08-08T02:36:59;98158.44;;;19.40;57.44
22311;BME280;11323;49.610;11.016;2023-08-08T02:41:59;98151.53;;;19.39;57.62
22311;BME280;11323;49.610;11.016;2023-08-08T02:47:01;98150.31;;;19.35;57.46
22311;BME280;11323;49.610;11.016;2023-08-08T02:52:01;98140.16;;;19.38;57.52
22311;BME280;11323;49.610;11.016;2023-08-08T02:57:05;98149.91;;;19.38;57.29
22311;BME280;11323;49.610;11.016;2023-08-08T03:02:06;98145.84;;;19.35;57.08
22311;BME280;11323;49.610;11.016;2023-08-08T03:07:09;98142.41;;;19.35;57.54
22311;BME280;11323;49.610;11.016;2023-08-08T03:12:11;98133.84;;;19.33;57.54
22311;BME280;11323;49.610;11.016;2023-08-08T03:17:12;98134.88;;;19.32;57.35
22311;BME280;11323;49.610;11.016;2023-08-08T03:22:13;98137.50;;;19.32;57.46
22311;BME280;11323;49.610;11.016;2023-08-08T03:27:13;98143.00;;;19.30;57.48
22311;BME280;11323;49.610;11.016;2023-08-08T03:32:14;98148.47;;;19.28;57.60
22311;BME280;11323;49.610;11.016;2023-08-08T03:37:15;98144.19;;;19.27;57.86
22311;BME280;11323;49.610;11.016;2023-08-08T03:42:16;98147.47;;;19.29;57.50
22311;BME280;11323;49.610;11.016;2023-08-08T03:47:17;98145.84;;;19.28;57.85
22311;BME280;11323;49.610;11.016;2023-08-08T03:52:17;98146.66;;;19.29;57.64
22311;BME280;11323;49.610;11.016;2023-08-08T03:57:17;98142.56;;;19.26;57.63
22311;BME280;11323;49.610;11.016;2023-08-08T04:02:18;98142.56;;;19.26;57.48
22311;BME280;11323;49.610;11.016;2023-08-08T04:07:18;98144.63;;;19.24;57.59
22311;BME280;11323;49.610;11.016;2023-08-08T04:12:19;98138.50;;;19.17;57.69
22311;BME280;11323;49.610;11.016;2023-08-08T04:17:19;98151.94;;;19.22;57.51
22311;BME280;11323;49.610;11.016;2023-08-08T04:22:19;98156.59;;;19.20;57.54
22311;BME280;11323;49.610;11.016;2023-08-08T04:27:20;98158.41;;;19.20;57.50
22311;BME280;11323;49.610;11.016;2023-08-08T04:32:20;98156.81;;;19.19;57.56
22311;BME280;11323;49.610;11.016;2023-08-08T04:37:21;98146.41;;;19.17;57.67
22311;BME280;11323;49.610;11.016;2023-08-08T04:42:21;98150.06;;;19.16;57.75
22311;BME280;11323;49.610;11.016;2023-08-08T04:47:21;98138.28;;;19.12;57.67
22311;BME280;11323;49.610;11.016;2023-08-08T04:52:22;98148.66;;;19.13;57.71
22311;BME280;11323;49.610;11.016;2023-08-08T04:57:22;98152.28;;;19.12;57.74
22311;BME280;11323;49.610;11.016;2023-08-08T05:02:23;98151.50;;;19.12;57.86
22311;BME280;11323;49.610;11.016;2023-08-08T05:07:23;98139.06;;;19.06;57.66
22311;BME280;11323;49.610;11.016;2023-08-08T05:12:23;98144.59;;;19.11;57.68
22311;BME280;11323;49.610;11.016;2023-08-08T05:17:24;98149.88;;;19.11;57.69
22311;BME280;11323;49.610;11.016;2023-08-08T05:22:24;98153.91;;;19.07;57.37
22311;BME280;11323;49.610;11.016;2023-08-08T05:27:25;98163.25;;;19.09;57.39
22311;BME280;11323;49.610;11.016;2023-08-08T05:32:25;98154.13;;;19.12;57.06
22311;BME280;11323;49.610;11.016;2023-08-08T05:37:25;98155.78;;;19.13;57.44
22311;BME280;11323;49.610;11.016;2023-08-08T05:42:26;98147.41;;;19.03;57.30
22311;BME280;11323;49.610;11.016;2023-08-08T05:47:26;98156.34;;;19.02;57.33
22311;BME280;11323;49.610;11.016;2023-08-08T05:52:26;98142.94;;;19.10;57.43
22311;BME280;11323;49.610;11.016;2023-08-08T05:57:27;98135.91;;;18.82;57.39
22311;BME280;11323;49.610;11.016;2023-08-08T06:02:27;98149.00;;;19.04;57.65
22311;BME280;11323;49.610;11.016;2023-08-08T06:07:27;98150.47;;;19.06;57.64
22311;BME280;11323;49.610;11.016;2023-08-08T06:12:28;98150.25;;;19.08;57.48
22311;BME280;11323;49.610;11.016;2023-08-08T06:17:28;98155.16;;;19.11;57.68
22311;BME280;11323;49.610;11.016;2023-08-08T06:22:28;98150.28;;;19.21;57.99
22311;BME280;11323;49.610;11.016;2023-08-08T06:27:29;98151.50;;;19.25;58.15
22311;BME280;11323;49.610;11.016;2023-08-08T06:32:30;98149.91;;;19.24;58.02
22311;BME280;11323;49.610;11.016;2023-08-08T06:37:30;98129.19;;;19.28;58.02
22311;BME280;11323;49.610;11.016;2023-08-08T06:42:31;98135.50;;;19.34;58.09
22311;BME280;11323;49.610;11.016;2023-08-08T06:47:35;98134.06;;;19.38;58.12
22311;BME280;11323;49.610;11.016;2023-08-08T06:52:35;98120.84;;;19.38;57.57
22311;BME280;11323;49.610;11.016;2023-08-08T06:57:36;98124.28;;;19.32;58.04
22311;BME280;11323;49.610;11.016;2023-08-08T07:02:36;98110.88;;;19.26;58.18
22311;BME280;11323;49.610;11.016;2023-08-08T07:07:36;98127.94;;;19.31;57.81
22311;BME280;11323;49.610;11.016;2023-08-08T07:12:37;98115.94;;;19.21;57.39
22311;BME280;11323;49.610;11.016;2023-08-08T07:17:38;98126.28;;;19.16;57.75
22311;BME280;11323;49.610;11.016;2023-08-08T07:22:38;98108.41;;;19.18;57.79
22311;BME280;11323;49.610;11.016;2023-08-08T07:27:39;98101.91;;;19.14;57.87
22311;BME280;11323;49.610;11.016;2023-08-08T07:32:39;98110.06;;;19.19;57.66
22311;BME280;11323;49.610;11.016;2023-08-08T07:37:40;98097.84;;;19.18;57.81
22311;BME280;11323;49.610;11.016;2023-08-08T07:42:40;98098.88;;;19.17;57.69
22311;BME280;11323;49.610;11.016;2023-08-08T07:47:40;98107.63;;;19.24;57.65
22311;BME280;11323;49.610;11.016;2023-08-08T07:52:41;98047.00;;;18.89;57.41
22311;BME280;11323;49.610;11.016;2023-08-08T07:57:42;98103.56;;;19.28;57.44
22311;BME280;11323;49.610;11.016;2023-08-08T08:02:43;98100.91;;;19.28;57.45
22311;BME280;11323;49.610;11.016;2023-08-08T08:07:43;98087.91;;;19.20;57.44
22311;BME280;11323;49.610;11.016;2023-08-08T08:12:44;98080.78;;;19.27;57.59
22311;BME280;11323;49.610;11.016;2023-08-08T08:17:44;98089.94;;;19.32;57.54
22311;BME280;11323;49.610;11.016;2023-08-08T08:22:45;98095.22;;;19.32;57.47
22311;BME280;11323;49.610;11.016;2023-08-08T08:27:45;98090.53;;;19.20;57.11
22311;BME280;11323;49.610;11.016;2023-08-08T08:32:45;98103.56;;;19.28;57.13
22311;BME280;11323;49.610;11.016;2023-08-08T08:37:46;98096.63;;;19.27;56.95
22311;BME280;11323;49.610;11.016;2023-08-08T08:42:47;98098.28;;;19.28;56.90
22311;BME280;11323;49.610;11.016;2023-08-08T08:47:49;98081.00;;;19.19;56.54
22311;BME280;11323;49.610;11.016;2023-08-08T08:52:50;98089.34;;;19.29;56.21
22311;BME280;11323;49.610;11.016;2023-08-08T08:57:52;98088.53;;;19.29;55.78
22311;BME280;11323;49.610;11.016;2023-08-08T09:02:53;98091.97;;;19.29;55.45
22311;BME280;11323;49.610;11.016;2023-08-08T09:07:55;98084.03;;;19.29;55.46
22311;BME280;11323;49.610;11.016;2023-08-08T09:12:55;98078.75;;;19.29;54.83
22311;BME280;11323;49.610;11.016;2023-08-08T09:17:56;98080.78;;;19.27;54.80
22311;BME280;11323;49.610;11.016;2023-08-08T09:22:56;98080.78;;;19.27;54.80
22311;BME280;11323;49.610;11.016;2023-08-08T09:27:57;98078.16;;;19.27;54.65
22311;BME280;11323;49.610;11.016;2023-08-08T09:32:58;98077.53;;;19.25;54.30
22311;BME280;11323;49.610;11.016;2023-08-08T09:37:59;98072.88;;;19.27;54.24
22311;BME280;11323;49.610;11.016;2023-08-08T09:42:59;98044.22;;;19.18;54.50
22311;BME280;11323;49.610;11.016;2023-08-08T09:48:00;98061.28;;;19.28;54.60
22311;BME280;11323;49.610;11.016;2023-08-08T09:53:04;98040.75;;;19.17;54.40
22311;BME280;11323;49.610;11.016;2023-08-08T09:58:05;98061.28;;;19.28;54.50
22311;BME280;11323;49.610;11.016;2023-08-08T10:03:05;98056.81;;;19.29;54.52
22311;BME280;11323;49.610;11.016;2023-08-08T10:08:05;98065.75;;;19.28;54.53
22311;BME280;11323;49.610;11.016;2023-08-08T10:13:06;98058.03;;;19.26;54.48
22311;BME280;11323;49.610;11.016;2023-08-08T10:18:07;98077.53;;;19.25;54.43
22311;BME280;11323;49.610;11.016;2023-08-08T10:23:07;98072.25;;;19.25;54.13
22311;BME280;11323;49.610;11.016;2023-08-08T10:28:09;98066.16;;;19.25;54.11
22311;BME280;11323;49.610;11.016;2023-08-08T10:38:25;98049.91;;;19.28;54.23
22311;BME280;11323;49.610;11.016;2023-08-08T10:43:30;98043.00;;;19.34;55.16
22311;BME280;11323;49.610;11.016;2023-08-08T10:48:30;98044.00;;;19.33;55.03
22311;BME280;11323;49.610;11.016;2023-08-08T10:53:31;98043.00;;;19.40;54.96
22311;BME280;11323;49.610;11.016;2023-08-08T10:58:40;98049.09;;;19.41;54.47
22311;BME280;11323;49.610;11.016;2023-08-08T11:03:41;98045.03;;;19.38;53.45
22311;BME280;11323;49.610;11.016;2023-08-08T11:08:41;98033.84;;;19.29;52.25
22311;BME280;11323;49.610;11.016;2023-08-08T11:13:42;98042.56;;;19.37;52.01
22311;BME280;11323;49.610;11.016;2023-08-08T11:18:43;98024.91;;;19.31;51.29
22311;BME280;11323;49.610;11.016;2023-08-08T11:23:47;98022.88;;;19.26;51.17
22311;BME280;11323;49.610;11.016;2023-08-08T11:28:51;98046.25;;;19.36;51.71
22311;BME280;11323;49.610;11.016;2023-08-08T11:33:56;98045.22;;;19.37;51.66
22311;BME280;11323;49.610;11.016;2023-08-08T11:38:57;98038.91;;;19.38;50.97
22311;BME280;11323;49.610;11.016;2023-08-08T11:43:58;98035.06;;;19.40;50.59
22311;BME280;11323;49.610;11.016;2023-08-08T11:49:05;98033.84;;;19.36;49.53
22311;BME280;11323;49.610;11.016;2023-08-08T11:54:06;98038.53;;;19.41;49.00
22311;BME280;11323;49.610;11.016;2023-08-08T11:59:07;98026.94;;;19.42;49.46
22311;BME280;11323;49.610;11.016;2023-08-08T12:04:08;98019.41;;;19.45;49.91
22311;BME280;11323;49.610;11.016;2023-08-08T12:09:11;98006.81;;;19.41;50.34
22311;BME280;11323;49.610;11.016;2023-08-08T12:14:13;98013.72;;;19.49;49.83
22311;BME280;11323;49.610;11.016;2023-08-08T12:19:15;98021.44;;;19.50;49.04
22311;BME280;11323;49.610;11.016;2023-08-08T12:24:21;98024.69;;;19.52;48.60
22311;BME280;11323;49.610;11.016;2023-08-08T12:29:21;98020.22;;;19.53;48.40
22311;BME280;11323;49.610;11.016;2023-08-08T12:34:23;98015.75;;;19.53;47.70
22311;BME280;11323;49.610;11.016;2023-08-08T12:39:23;98013.72;;;19.55;48.00
22311;BME280;11323;49.610;11.016;2023-08-08T12:44:23;98021.44;;;19.57;47.74
22311;BME280;11323;49.610;11.016;2023-08-08T12:49:24;98026.53;;;19.58;47.41
22311;BME280;11323;49.610;11.016;2023-08-08T12:54:24;98027.53;;;19.57;47.23
22311;BME280;11323;49.610;11.016;2023-08-08T12:59:26;98019.41;;;19.59;47.53
22311;BME280;11323;49.610;11.016;2023-08-08T13:04:26;98015.13;;;19.58;47.77
22311;BME280;11323;49.610;11.016;2023-08-08T13:09:26;98005.56;;;19.57;47.97
22311;BME280;11323;49.610;11.016;2023-08-08T13:14:27;98009.22;;;19.56;47.96
22311;BME280;11323;49.610;11.016;2023-08-08T13:19:27;98005.16;;;19.53;47.92
22311;BME280;11323;49.610;11.016;2023-08-08T13:24:28;98005.16;;;19.53;47.29
22311;BME280;11323;49.610;11.016;2023-08-08T13:29:28;98000.69;;;19.54;47.14
22311;BME280;11323;49.610;11.016;2023-08-08T13:34:29;98008.59;;;19.60;47.39
22311;BME280;11323;49.610;11.016;2023-08-08T13:39:29;97990.53;;;19.57;47.31
22311;BME280;11323;49.610;11.016;2023-08-08T13:44:30;98001.69;;;19.59;47.54
22311;BME280;11323;49.610;11.016;2023-08-08T13:49:31;97996.41;;;19.59;47.09
22311;BME280;11323;49.610;11.016;2023-08-08T13:54:31;97988.91;;;19.56;47.00
22311;BME280;11323;49.610;11.016;2023-08-08T13:59:32;97992.75;;;19.60;47.14
22311;BME280;11323;49.610;11.016;2023-08-08T14:04:32;97990.09;;;19.60;46.62
22311;BME280;11323;49.610;11.016;2023-08-08T14:09:32;97995.59;;;19.59;46.63
22311;BME280;11323;49.610;11.016;2023-08-08T14:14:33;97983.63;;;19.56;46.19
22311;BME280;11323;49.610;11.016;2023-08-08T14:19:33;97996.63;;;19.51;45.97
22311;BME280;11323;49.610;11.016;2023-08-08T14:24:34;97991.34;;;19.51;46.80
22311;BME280;11323;49.610;11.016;2023-08-08T14:29:34;97989.53;;;19.45;45.86
22311;BME280;11323;49.610;11.016;2023-08-08T14:34:35;97992.97;;;19.45;46.49
22311;BME280;11323;49.610;11.016;2023-08-08T14:39:37;97988.31;;;19.48;45.91
22311;BME280;11323;49.610;11.016;2023-08-08T14:44:37;97991.34;;;19.51;45.86
22311;BME280;11323;49.610;11.016;2023-08-08T14:49:38;97985.25;;;19.51;45.79
22311;BME280;11323;49.610;11.016;2023-08-08T14:54:38;97992.16;;;19.52;46.03
22311;BME280;11323;49.610;11.016;2023-08-08T14:59:38;97990.31;;;19.52;46.01
22311;BME280;11323;49.610;11.016;2023-08-08T15:04:39;98005.16;;;19.53;46.62
22311;BME280;11323;49.610;11.016;2023-08-08T15:09:39;98005.16;;;19.53;46.65
22311;BME280;11323;49.610;11.016;2023-08-08T15:14:41;98008.81;;;19.52;46.56
22311;BME280;11323;49.610;11.016;2023-08-08T15:19:41;98014.94;;;19.46;46.57
22311;BME280;11323;49.610;11.016;2023-08-08T15:24:41;98008.81;;;19.52;46.98
22311;BME280;11323;49.610;11.016;2023-08-08T15:29:42;98010.25;;;19.48;47.39
22311;BME280;11323;49.610;11.016;2023-08-08T15:34:42;98012.88;;;19.48;46.08
22311;BME280;11323;49.610;11.016;2023-08-08T15:39:44;97983.63;;;19.43;46.19
22311;BME280;11323;49.610;11.016;2023-08-08T15:44:44;98000.28;;;19.50;46.42
22311;BME280;11323;49.610;11.016;2023-08-08T15:49:45;97984.03;;;19.40;45.74
22311;BME280;11323;49.610;11.016;2023-08-08T15:54:45;97992.19;;;19.45;45.83
22311;BME280;11323;49.610;11.016;2023-08-08T15:59:46;98001.13;;;19.51;45.75
22311;BME280;11323;49.610;11.016;2023-08-08T16:04:46;98000.28;;;19.50;46.15
22311;BME280;11323;49.610;11.016;2023-08-08T16:09:47;97991.75;;;19.48;46.41
22311;BME280;11323;49.610;11.016;2023-08-08T16:14:47;97994.59;;;19.47;46.42
22311;BME280;11323;49.610;11.016;2023-08-08T16:19:47;97984.66;;;19.42;46.74
22311;BME280;11323;49.610;11.016;2023-08-08T16:24:48;97993.59;;;19.41;46.74
22311;BME280;11323;49.610;11.016;2023-08-08T16:29:48;97999.50;;;19.43;46.12
22311;BME280;11323;49.610;11.016;2023-08-08T16:34:48;97997.47;;;19.45;46.50
22311;BME280;11323;49.610;11.016;2023-08-08T16:39:49;97987.91;;;19.37;46.19
22311;BME280;11323;49.610;11.016;2023-08-08T16:44:49;97981.22;;;19.35;46.49
22311;BME280;11323;49.610;11.016;2023-08-08T16:49:50;97998.88;;;19.41;46.29
22311;BME280;11323;49.610;11.016;2023-08-08T16:54:50;98005.19;;;19.40;46.53
22311;BME280;11323;49.610;11.016;2023-08-08T16:59:51;97996.63;;;19.38;46.69
22311;BME280;11323;49.610;11.016;2023-08-08T17:04:51;97986.06;;;19.38;46.20
22311;BME280;11323;49.610;11.016;2023-08-08T17:09:52;97987.09;;;19.37;46.55
22311;BME280;11323;49.610;11.016;2023-08-08T17:14:53;97998.25;;;19.39;46.78
22311;BME280;11323;49.610;11.016;2023-08-08T17:19:54;97999.09;;;19.39;46.88
22311;BME280;11323;49.610;11.016;2023-08-08T17:24:54;97986.91;;;19.32;47.49
22311;BME280;11323;49.610;11.016;2023-08-08T17:29:55;97987.50;;;19.40;47.73
22311;BME280;11323;49.610;11.016;2023-08-08T17:34:55;98007.41;;;19.43;48.19
22311;BME280;11323;49.610;11.016;2023-08-08T17:39:56;98003.75;;;19.44;48.03
22311;BME280;11323;49.610;11.016;2023-08-08T17:44:56;98010.47;;;19.47;47.84
22311;BME280;11323;49.610;11.016;2023-08-08T17:49:57;98011.28;;;19.47;47.63
22311;BME280;11323;49.610;11.016;2023-08-08T17:54:57;97994.59;;;19.40;47.67
22311;BME280;11323;49.610;11.016;2023-08-08T17:59:58;98015.97;;;19.45;47.59
22311;BME280;11323;49.610;11.016;2023-08-08T18:04:58;98015.97;;;19.45;47.72
22311;BME280;11323;49.610;11.016;2023-08-08T18:09:58;98013.72;;;19.42;47.44
22311;BME280;11323;49.610;11.016;2023-08-08T18:14:59;98021.66;;;19.42;47.05
22311;BME280;11323;49.610;11.016;2023-08-08T18:20:00;97998.25;;;19.25;47.13
22311;BME280;11323;49.610;11.016;2023-08-08T18:25:00;98015.56;;;19.35;47.08
22311;BME280;11323;49.610;11.016;2023-08-08T18:30:00;98015.56;;;19.35;47.22
22311;BME280;11323;49.610;11.016;2023-08-08T18:35:01;98018.22;;;19.35;46.65
22311;BME280;11323;49.610;11.016;2023-08-08T18:40:03;98019.22;;;19.34;46.35
22311;BME280;11323;49.610;11.016;2023-08-08T18:45:06;98024.28;;;19.28;46.80
22311;BME280;11323;49.610;11.016;2023-08-08T18:50:08;98022.66;;;19.27;46.90
22311;BME280;11323;49.610;11.016;2023-08-08T18:55:09;98024.69;;;19.25;47.24
22311;BME280;11323;49.610;11.016;2023-08-08T19:00:10;98031.41;;;19.21;47.48
22311;BME280;11323;49.610;11.016;2023-08-08T19:05:10;98040.75;;;19.31;48.04
22311;BME280;11323;49.610;11.016;2023-08-08T19:10:11;98048.91;;;19.36;48.47
22311;BME280;11323;49.610;11.016;2023-08-08T19:15:11;98052.13;;;19.38;48.88
22311;BME280;11323;49.610;11.016;2023-08-08T19:20:12;98048.06;;;19.42;49.00
22311;BME280;11323;49.610;11.016;2023-08-08T19:25:13;98045.03;;;19.45;49.20
22311;BME280;11323;49.610;11.016;2023-08-08T19:30:13;98029.19;;;19.38;49.35
22311;BME280;11323;49.610;11.016;2023-08-08T19:35:13;98043.81;;;19.41;49.70
22311;BME280;11323;49.610;11.016;2023-08-08T19:40:14;98060.06;;;19.51;49.71
22311;BME280;11323;49.610;11.016;2023-08-08T19:45:14;98058.03;;;19.53;50.04
22311;BME280;11323;49.610;11.016;2023-08-08T19:50:14;98047.47;;;19.53;49.96
22311;BME280;11323;49.610;11.016;2023-08-08T19:55:15;98048.06;;;19.55;50.05
22311;BME280;11323;49.610;11.016;2023-08-08T20:00:15;98039.94;;;19.50;50.16
22311;BME280;11323;49.610;11.016;2023-08-08T20:05:16;98046.03;;;19.57;50.10
22311;BME280;11323;49.610;11.016;2023-08-08T20:10:16;98043.81;;;19.61;50.28
22311;BME280;11323;49.610;11.016;2023-08-08T20:15:17;98057.19;;;19.59;50.34
22311;BME280;11323;49.610;11.016;2023-08-08T20:20:17;98056.41;;;19.59;50.27
22311;BME280;11323;49.610;11.016;2023-08-08T20:25:18;98039.75;;;19.58;50.41
22311;BME280;11323;49.610;11.016;2023-08-08T20:30:18;98038.91;;;19.58;50.23
22311;BME280;11323;49.610;11.016;2023-08-08T20:35:18;98038.13;;;19.57;50.54
22311;BME280;11323;49.610;11.016;2023-08-08T20:40:19;98033.63;;;19.58;50.54
22311;BME280;11323;49.610;11.016;2023-08-08T20:45:20;98023.88;;;19.58;50.46
22311;BME280;11323;49.610;11.016;2023-08-08T20:50:20;98034.03;;;19.62;50.63
22311;BME280;11323;49.610;11.016;2023-08-08T20:55:21;98026.09;;;19.62;50.87
22311;BME280;11323;49.610;11.016;2023-08-08T21:00:21;98026.72;;;19.64;50.82
22311;BME280;11323;49.610;11.016;2023-08-08T21:05:21;98030.97;;;19.65;51.04
22311;BME280;11323;49.610;11.016;2023-08-08T21:10:22;98016.13;;;19.57;51.13
22311;BME280;11323;49.610;11.016;2023-08-08T21:15:22;98024.28;;;19.62;51.05
22311;BME280;11323;49.610;11.016;2023-08-08T21:20:23;98032.00;;;19.64;51.21
22311;BME280;11323;49.610;11.016;2023-08-08T21:25:23;98016.91;;;19.71;51.24
22311;BME280;11323;49.610;11.016;2023-08-08T21:30:24;98008.03;;;19.58;51.43
22311;BME280;11323;49.610;11.016;2023-08-08T21:35:24;98017.75;;;19.65;51.47
22311;BME280;11323;49.610;11.016;2023-08-08T21:40:24;98019.56;;;19.71;51.43
22311;BME280;11323;49.610;11.016;2023-08-08T21:45:25;98016.34;;;19.69;51.56
22311;BME280;11323;49.610;11.016;2023-08-08T21:50:25;98024.84;;;19.71;51.49
22311;BME280;11323;49.610;11.016;2023-08-08T21:55:26;98019.00;;;19.69;51.32
22311;BME280;11323;49.610;11.016;2023-08-08T22:00:26;98005.94;;;19.67;51.51
22311;BME280;11323;49.610;11.016;2023-08-08T22:05:26;97991.34;;;19.58;51.38
22311;BME280;11323;49.610;11.016;2023-08-08T22:10:27;98005.16;;;19.67;51.50
22311;BME280;11323;49.610;11.016;2023-08-08T22:15:34;98000.88;;;19.66;51.66
22311;BME280;11323;49.610;11.016;2023-08-08T22:20:34;97999.88;;;19.67;51.53
22311;BME280;11323;49.610;11.016;2023-08-08T22:25:35;97987.28;;;19.62;51.62
22311;BME280;11323;49.610;11.016;2023-08-08T22:30:35;97995.00;;;19.64;51.56
22311;BME280;11323;49.610;11.016;2023-08-08T22:35:36;97991.31;;;19.65;51.51
22311;BME280;11323;49.610;11.016;2023-08-08T22:40:36;98001.09;;;19.64;51.38
22311;BME280;11323;49.610;11.016;2023-08-08T22:45:37;97985.25;;;19.57;51.59
22311;BME280;11323;49.610;11.016;2023-08-08T22:50:37;97991.31;;;19.65;51.54
22311;BME280;11323;49.610;11.016;2023-08-08T22:55:40;97995.81;;;19.64;51.64
22311;BME280;11323;49.610;11.016;2023-08-08T23:00:41;97998.66;;;19.63;51.65
22311;BME280;11323;49.610;11.016;2023-08-08T23:05:41;97988.91;;;19.63;51.72
22311;BME280;11323;49.610;11.016;2023-08-08T23:10:42;97984.41;;;19.64;51.61
22311;BME280;11323;49.610;11.016;2023-08-08T23:15:42;97983.81;;;19.62;51.95
22311;BME280;11323;49.610;11.016;2023-08-08T23:20:43;97982.78;;;19.63;51.79
22311;BME280;11323;49.610;11.016;2023-08-08T23:25:43;97978.31;;;19.63;52.27
22311;BME280;11323;49.610;11.016;2023-08-08T23:30:44;97977.50;;;19.63;51.94
22311;BME280;11323;49.610;11.016;2023-08-08T23:35:44;97972.22;;;19.63;52.23
22311;BME280;11323;49.610;11.016;2023-08-08T23:40:45;97977.72;;;19.61;52.29
22311;BME280;11323;49.610;11.016;2023-08-08T23:45:45;97975.88;;;19.62;52.50
22311;BME280;11323;49.610;11.016;2023-08-08T23:50:45;97978.50;;;19.62;52.58
22311;BME280;11323;49.610;11.016;2023-08-08T23:55:46;97978.72;;;19.60;52.95
